Time;durP1;ratioP1;P1;durP2;ratioP2;P2;SDS_P1;SDS_P2;PMS_P1;PMS_P2;Temp;Humidity;BMP_temperature;BMP_pressure;BME280_temperature;BME280_humidity;BME280_pressure;Samples;Min_cycle;Max_cycle;Signal;HPM_P1;HPM_P2
2022/06/05 00:02:42;;;;;;;23.30;12.18;;;;;;;19.89;nan;100707.38;5086690;28;20043;-66
2022/06/05 00:05:17;;;;;;;15.90;12.48;;;;;;;19.80;nan;100705.59;5084950;28;20051;-64
2022/06/05 00:08:04;;;;;;;16.45;13.07;;;;;;;19.52;nan;100667.84;5088591;28;20038;-65
2022/06/05 00:10:52;;;;;;;18.63;13.27;;;;;;;19.62;nan;100699.81;5081179;28;20032;-64
2022/06/05 00:13:23;;;;;;;16.42;12.27;;;;;;;19.71;nan;100708.88;5087859;28;20036;-63
2022/06/05 00:15:48;;;;;;;18.75;12.45;;;;;;;19.68;nan;100713.97;5088483;28;20119;-64
2022/06/05 00:18:14;;;;;;;16.38;12.93;;;;;;;19.52;nan;100699.88;5065030;28;20119;-66
2022/06/05 00:20:44;;;;;;;15.43;12.45;;;;;;;19.61;nan;100708.91;5087182;28;20550;-62
2022/06/05 00:23:10;;;;;;;21.13;13.25;;;;;;;19.59;nan;100705.72;5078467;28;20383;-63
2022/06/05 00:25:59;;;;;;;16.55;12.63;;;;;;;19.52;nan;100708.69;5087849;28;20035;-64
2022/06/05 00:28:30;;;;;;;;;;;;;;;19.55;nan;100696.66;5087941;28;20028;-64
2022/06/05 00:31:03;;;;;;;16.27;12.13;;;;;;;19.57;nan;100704.41;5086293;28;19923;-65
2022/06/05 00:33:35;;;;;;;17.50;12.93;;;;;;;19.58;nan;100693.41;5089538;28;20036;-64
2022/06/05 00:36:26;;;;;;;18.42;12.82;;;;;;;19.53;nan;100696.13;5091442;28;20036;-64
2022/06/05 00:39:14;;;;;;;17.55;12.82;;;;;;;19.55;nan;100710.00;5077166;28;20040;-64
2022/06/05 00:41:58;;;;;;;21.70;13.48;;;;;;;19.53;nan;100712.16;5081854;28;20051;-64
2022/06/05 00:44:34;;;;;;;21.02;14.80;;;;;;;19.46;nan;100701.78;5073887;28;20035;-64
2022/06/05 00:47:07;;;;;;;20.80;14.43;;;;;;;18.92;nan;100631.34;5092436;28;20062;-64
2022/06/05 00:49:41;;;;;;;17.48;13.07;;;;;;;19.45;nan;100699.41;5073523;28;20057;-64
2022/06/05 00:52:10;;;;;;;16.60;13.10;;;;;;;19.41;nan;100690.34;5074260;28;20213;-64
2022/06/05 00:54:36;;;;;;;19.30;13.32;;;;;;;19.46;nan;100700.97;5077479;28;20553;-63
2022/06/05 00:57:06;;;;;;;16.77;13.13;;;;;;;19.34;nan;100683.41;5091383;28;20058;-64
2022/06/05 00:59:32;;;;;;;15.57;12.75;;;;;;;19.36;nan;100675.13;5089956;28;20036;-65
2022/06/05 01:01:57;;;;;;;21.10;14.43;;;;;;;19.31;nan;100670.63;5090006;28;20028;-64
2022/06/05 01:04:23;;;;;;;16.98;12.80;;;;;;;19.38;nan;100689.03;5091938;28;20467;-67
2022/06/05 01:06:49;;;;;;;17.15;14.43;;;;;;;19.41;nan;100683.13;5091601;28;20142;-64
2022/06/05 01:09:14;;;;;;;18.25;13.70;;;;;;;19.42;nan;100690.06;5085192;28;20032;-64
2022/06/05 01:12:04;;;;;;;17.55;13.50;;;;;;;19.41;nan;100687.66;5064485;28;20047;-64
2022/06/05 01:14:37;;;;;;;22.73;15.15;;;;;;;19.36;nan;100677.81;5069529;28;20062;-64
2022/06/05 01:17:22;;;;;;;19.23;14.48;;;;;;;19.38;nan;100682.88;5069320;28;20082;-64
2022/06/05 01:19:58;;;;;;;17.33;14.25;;;;;;;19.23;nan;100663.22;5070113;28;20127;-64
2022/06/05 01:22:41;;;;;;;18.38;14.57;;;;;;;19.31;nan;100665.28;5070056;28;20063;-64
2022/06/05 01:25:33;;;;;;;23.13;15.52;;;;;;;19.28;nan;100663.19;5071269;28;20486;-65
2022/06/05 01:28:06;;;;;;;19.83;14.48;;;;;;;19.13;nan;100655.28;5070580;28;20471;-64
2022/06/05 01:30:44;;;;;;;21.27;16.00;;;;;;;19.11;nan;100663.53;5070733;28;20032;-64
2022/06/05 01:33:20;;;;;;;22.27;15.88;;;;;;;19.18;nan;100659.75;5071313;28;20102;-63
2022/06/05 01:36:02;;;;;;;22.42;14.95;;;;;;;19.13;nan;100664.06;5071470;28;20063;-64
2022/06/05 01:38:39;;;;;;;20.85;15.93;;;;;;;19.07;nan;100656.34;5066438;28;20144;-63
2022/06/05 01:41:14;;;;;;;25.10;16.23;;;;;;;19.08;nan;100664.09;5070891;28;20029;-65
2022/06/05 01:43:47;;;;;;;21.00;16.38;;;;;;;19.05;nan;100663.84;5070821;28;20082;-64
2022/06/05 01:46:20;;;;;;;22.25;16.42;;;;;;;19.01;nan;100665.44;5070919;28;20063;-64
2022/06/05 01:48:56;;;;;;;22.33;15.93;;;;;;;19.03;nan;100668.66;5068758;28;20508;-66
2022/06/05 01:51:34;;;;;;;22.63;15.75;;;;;;;18.89;nan;100652.44;5060950;28;20060;-63
2022/06/05 01:54:07;;;;;;;20.23;15.60;;;;;;;18.99;nan;100671.09;5070347;28;20150;-64
2022/06/05 01:56:38;;;;;;;24.27;16.52;;;;;;;18.96;nan;100660.94;5069722;28;20025;-63
2022/06/05 01:59:25;;;;;;;24.77;16.98;;;;;;;18.93;nan;100672.16;5068287;28;20028;-64
2022/06/05 02:01:56;;;;;;;22.95;16.77;;;;;;;18.84;nan;100663.13;5070514;28;20051;-63
2022/06/05 02:04:31;;;;;;;22.48;17.10;;;;;;;18.80;nan;100678.91;5066069;28;20068;-63
2022/06/05 02:07:03;;;;;;;24.92;17.60;;;;;;;18.77;nan;100663.44;5067883;28;20036;-63
2022/06/05 02:09:38;;;;;;;27.38;18.30;;;;;;;18.78;nan;100651.69;5059888;28;20036;-63
2022/06/05 02:12:06;;;;;;;26.77;18.38;;;;;;;18.78;nan;100646.34;5084963;28;20032;-64
2022/06/05 02:14:31;;;;;;;30.65;18.52;;;;;;;18.54;nan;100605.34;5062907;28;20374;-63
2022/06/05 02:17:03;;;;;;;26.40;18.60;;;;;;;18.79;nan;100642.59;5070631;28;20085;-64
2022/06/05 02:19:28;;;;;;;24.92;17.63;;;;;;;18.66;nan;100619.16;5089333;28;20371;-63
2022/06/05 02:22:02;;;;;;;30.15;18.15;;;;;;;18.72;nan;100626.06;5090375;28;20041;-63
2022/06/05 02:24:28;;;;;;;29.45;20.05;;;;;;;18.65;nan;100621.03;5088908;28;20040;-63
2022/06/05 02:26:55;;;;;;;28.35;19.73;;;;;;;18.58;nan;100623.22;5072875;28;20047;-64
2022/06/05 02:29:23;;;;;;;28.20;20.00;;;;;;;18.58;nan;100630.38;5089421;28;20032;-64
2022/06/05 02:32:09;;;;;;;24.85;18.65;;;;;;;18.60;nan;100636.25;5089983;28;20035;-64
2022/06/05 02:34:46;;;;;;;33.10;20.13;;;;;;;18.49;nan;100624.84;5088236;28;20032;-64
2022/06/05 02:37:36;;;;;;;28.80;19.90;;;;;;;18.53;nan;100636.53;5080401;28;20236;-64
2022/06/05 02:40:19;;;;;;;28.95;19.33;;;;;;;18.40;nan;100640.59;5089533;28;20611;-66
2022/06/05 02:42:58;;;;;;;28.02;20.50;;;;;;;18.41;nan;100665.38;5086408;28;20056;-65
2022/06/05 02:45:24;;;;;;;30.30;20.20;;;;;;;18.38;nan;100661.38;5089487;28;20158;-65
2022/06/05 02:47:58;;;;;;;34.25;20.83;;;;;;;18.12;nan;100628.66;5090185;28;20111;-66
2022/06/05 02:50:44;;;;;;;38.50;22.48;;;;;;;18.36;nan;100662.72;5088866;28;20031;-65
2022/06/05 02:53:11;;;;;;;33.65;22.38;;;;;;;18.10;nan;100629.97;5084797;28;20127;-64
2022/06/05 02:55:38;;;;;;;31.10;21.70;;;;;;;18.30;nan;100661.16;5069335;28;20044;-65
2022/06/05 02:58:04;;;;;;;38.30;23.00;;;;;;;18.22;nan;100651.81;5071939;28;20030;-63
2022/06/05 03:00:32;;;;;;;27.73;19.77;;;;;;;18.35;nan;100664.59;5088259;28;20028;-63
2022/06/05 03:05:49;;;;;;;37.60;21.45;;;;;;;18.40;nan;100663.78;5073763;28;20039;-64
2022/06/05 03:08:17;;;;;;;36.42;22.25;;;;;;;18.40;nan;100656.59;5089147;28;20035;-64
2022/06/05 03:10:44;;;;;;;36.75;23.00;;;;;;;18.40;nan;100659.25;5074874;28;20040;-65
2022/06/05 03:13:11;;;;;;;28.95;21.65;;;;;;;18.42;nan;100659.78;5077885;28;20036;-65
2022/06/05 03:15:37;;;;;;;37.92;22.75;;;;;;;18.42;nan;100651.00;5083951;28;20382;-64
2022/06/05 03:18:04;;;;;;;29.90;21.70;;;;;;;18.38;nan;100640.06;5082794;28;20140;-65
2022/06/05 03:20:30;;;;;;;35.45;22.45;;;;;;;18.41;nan;100650.19;5087960;28;20046;-66
2022/06/05 03:22:58;;;;;;;33.50;21.55;;;;;;;18.39;nan;100649.66;5088721;28;20032;-65
2022/06/05 03:25:25;;;;;;;38.60;20.63;;;;;;;18.45;nan;100651.22;5074235;28;20028;-64
2022/06/05 03:27:50;;;;;;;30.63;20.85;;;;;;;18.44;nan;100657.66;5089767;28;20028;-65
2022/06/05 03:30:17;;;;;;;32.35;21.10;;;;;;;18.24;nan;100617.69;5085703;28;20035;-64
2022/06/05 03:32:43;;;;;;;30.30;20.90;;;;;;;18.44;nan;100654.19;5089099;28;20028;-64
2022/06/05 03:35:09;;;;;;;34.85;22.27;;;;;;;18.42;nan;100657.13;5083120;28;20438;-66
2022/06/05 03:37:36;;;;;;;34.25;22.52;;;;;;;18.41;nan;100646.72;5083688;28;20596;-65
2022/06/05 03:40:02;;;;;;;29.98;22.38;;;;;;;18.37;nan;100656.34;5086468;28;20028;-66
2022/06/05 03:42:27;;;;;;;29.75;22.20;;;;;;;18.41;nan;100655.53;5088466;28;20032;-65
2022/06/05 03:44:53;;;;;;;37.05;22.55;;;;;;;18.30;nan;100639.81;5087354;28;20030;-65
2022/06/05 03:47:18;;;;;;;33.88;23.00;;;;;;;18.35;nan;100653.94;5085495;28;20111;-64
2022/06/05 03:49:44;;;;;;;31.33;22.00;;;;;;;18.42;nan;100657.13;5087752;28;20028;-64
2022/06/05 03:52:13;;;;;;;33.80;22.88;;;;;;;18.45;nan;100656.56;5088695;28;20079;-65
2022/06/05 03:54:39;;;;;;;33.22;23.52;;;;;;;18.50;nan;100653.09;5070640;28;20546;-66
2022/06/05 03:57:06;;;;;;;31.02;21.95;;;;;;;18.57;nan;100660.81;5087250;28;20028;-63
2022/06/05 03:59:34;;;;;;;34.35;19.45;;;;;;;18.58;nan;100657.88;5088040;28;20036;-64
2022/06/05 04:02:00;;;;;;;27.10;18.05;;;;;;;18.63;nan;100657.06;5088730;28;20028;-65
2022/06/05 04:04:25;;;;;;;31.05;18.02;;;;;;;18.59;nan;100650.66;5088167;28;20039;-64
2022/06/05 04:06:51;;;;;;;27.63;18.08;;;;;;;18.52;nan;100650.94;5088115;28;20441;-65
2022/06/05 04:09:16;;;;;;;25.33;17.73;;;;;;;18.56;nan;100640.56;5086519;28;20531;-66
2022/06/05 04:11:42;;;;;;;22.70;17.38;;;;;;;18.60;nan;100645.03;5086525;28;20397;-64
2022/06/05 04:14:08;;;;;;;26.60;18.30;;;;;;;18.66;nan;100651.19;5084341;28;20028;-66
2022/06/05 04:16:35;;;;;;;28.55;17.98;;;;;;;18.66;nan;100651.97;5084102;28;20056;-64
2022/06/05 04:19:05;;;;;;;24.05;17.73;;;;;;;18.65;nan;100649.56;5087886;28;20039;-65
2022/06/05 04:21:36;;;;;;;23.88;18.05;;;;;;;18.55;nan;100637.06;5074337;28;20040;-67
2022/06/05 04:24:02;;;;;;;23.38;17.88;;;;;;;18.73;nan;100650.88;5084585;28;20469;-66
2022/06/05 04:26:31;;;;;;;23.08;17.80;;;;;;;18.80;nan;100659.44;5080167;28;20135;-63
2022/06/05 04:28:57;;;;;;;24.48;17.58;;;;;;;18.85;nan;100652.19;5080315;28;20481;-63
2022/06/05 04:31:33;;;;;;;22.60;16.17;;;;;;;18.95;nan;100658.56;5079997;28;20054;-66
2022/06/05 04:34:02;;;;;;;20.38;16.60;;;;;;;18.95;nan;100663.91;5085718;28;20073;-64
2022/06/05 04:36:28;;;;;;;20.13;16.15;;;;;;;18.98;nan;100666.81;5086441;28;20566;-64
2022/06/05 04:38:54;;;;;;;22.50;16.35;;;;;;;18.80;nan;100622.88;5087818;28;20032;-64
2022/06/05 04:41:19;;;;;;;22.55;15.05;;;;;;;19.11;nan;100657.41;5061809;28;20519;-64
2022/06/05 04:43:46;;;;;;;18.80;15.13;;;;;;;19.09;nan;100639.00;5086908;28;20058;-65
2022/06/05 04:46:12;;;;;;;21.77;14.55;;;;;;;19.29;nan;100647.94;5091256;28;20051;-65
2022/06/05 04:48:37;;;;;;;15.57;13.80;;;;;;;19.48;nan;100664.13;5087106;28;20044;-64
2022/06/05 04:51:07;;;;;;;18.40;13.95;;;;;;;19.51;nan;100663.56;5085268;28;20032;-64
2022/06/05 04:53:33;;;;;;;16.02;13.98;;;;;;;19.53;nan;100648.06;5085955;28;20073;-67
2022/06/05 04:56:06;;;;;;;48.47;43.47;;;;;;;19.66;nan;100655.44;5088029;28;20031;-65
2022/06/05 04:58:32;;;;;;;32.45;21.15;;;;;;;19.98;nan;100673.63;5077071;28;20043;-64
2022/06/05 05:00:58;;;;;;;20.17;16.05;;;;;;;19.95;nan;100668.84;5078689;28;20044;-64
2022/06/05 05:03:23;;;;;;;16.40;12.98;;;;;;;19.99;nan;100677.09;5078836;28;20029;-66
2022/06/05 05:05:49;;;;;;;16.02;12.70;;;;;;;19.81;nan;100648.41;5080403;28;20043;-66
2022/06/05 05:08:15;;;;;;;15.88;12.45;;;;;;;20.05;nan;100686.69;5081634;28;20040;-65
2022/06/05 05:10:41;;;;;;;17.77;13.57;;;;;;;20.16;nan;100690.88;5076946;28;20131;-65
2022/06/05 05:13:07;;;;;;;14.80;12.27;;;;;;;20.26;nan;100691.84;5060749;28;20082;-64
2022/06/05 05:15:32;;;;;;;15.55;13.05;;;;;;;20.42;nan;100705.84;5084863;28;20477;-65
2022/06/05 05:17:57;;;;;;;15.73;13.25;;;;;;;20.33;nan;100673.59;5086749;28;20167;-65
2022/06/05 05:20:25;;;;;;;15.07;13.00;;;;;;;20.65;nan;100704.31;5087820;28;20028;-66
2022/06/05 05:22:51;;;;;;;18.75;12.77;;;;;;;20.81;nan;100708.41;5088813;28;20082;-64
2022/06/05 05:25:16;;;;;;;14.85;11.90;;;;;;;20.80;nan;100698.78;5083306;28;20040;-67
2022/06/05 05:27:41;;;;;;;14.07;12.18;;;;;;;20.68;nan;100672.41;5081698;28;20032;-67
2022/06/05 05:30:09;;;;;;;16.48;11.70;;;;;;;20.99;nan;100717.56;5079586;28;20064;-66
2022/06/05 05:32:34;;;;;;;17.42;10.65;;;;;;;20.95;nan;100693.25;5077695;28;20050;-66
2022/06/05 05:35:00;;;;;;;17.52;11.23;;;;;;;21.10;nan;100711.00;5089716;28;20040;-65
2022/06/05 05:37:25;;;;;;;16.02;12.27;;;;;;;21.28;nan;100719.31;5069058;28;20059;-66
2022/06/05 05:42:35;;;;;;;15.70;11.02;;;;;;;21.41;nan;100722.13;5083723;28;20039;-66
2022/06/05 05:45:02;;;;;;;13.48;11.13;;;;;;;21.48;nan;100727.13;5065035;28;20044;-67
2022/06/05 05:47:30;;;;;;;15.77;10.57;;;;;;;21.58;nan;100726.19;5070956;28;20036;-66
2022/06/05 05:50:08;;;;;;;21.90;11.27;;;;;;;21.65;nan;100729.28;5087394;28;20050;-66
2022/06/05 05:52:34;;;;;;;13.13;10.43;;;;;;;21.71;nan;100728.09;5089857;28;20531;-66
2022/06/05 05:55:00;;;;;;;12.00;9.77;;;;;;;21.72;nan;100718.22;5089182;28;20119;-65
2022/06/05 05:57:26;;;;;;;12.50;9.77;;;;;;;21.90;nan;100725.41;5090601;28;20058;-64
2022/06/05 05:59:51;;;;;;;11.80;9.02;;;;;;;21.98;nan;100721.25;5090123;28;20044;-67
2022/06/05 06:02:21;;;;;;;11.65;8.48;;;;;;;21.92;nan;100701.00;5083564;28;20020;-67
2022/06/05 06:04:48;;;;;;;11.55;8.95;;;;;;;21.99;nan;100704.09;5089334;28;20094;-66
2022/06/05 06:07:14;;;;;;;13.07;9.85;;;;;;;22.10;nan;100705.53;5084497;28;20378;-66
2022/06/05 06:09:40;;;;;;;12.10;9.13;;;;;;;22.18;nan;100707.50;5079317;28;20043;-64
2022/06/05 06:12:06;;;;;;;10.82;9.38;;;;;;;22.27;nan;100705.00;5060594;28;20044;-66
2022/06/05 06:14:33;;;;;;;11.95;8.27;;;;;;;22.26;nan;100701.47;5069509;28;20036;-64
2022/06/05 06:16:58;;;;;;;9.30;8.18;;;;;;;22.31;nan;100711.31;5069791;28;20028;-63
2022/06/05 06:19:24;;;;;;;10.38;7.90;;;;;;;22.38;nan;100719.00;5070501;28;20085;-64
2022/06/05 06:21:49;;;;;;;10.45;7.78;;;;;;;22.46;nan;100710.28;5069795;28;20025;-66
2022/06/05 06:24:15;;;;;;;9.68;8.18;;;;;;;22.64;nan;100709.38;5065840;28;20679;-64
2022/06/05 06:26:41;;;;;;;10.32;8.75;;;;;;;22.71;nan;100707.09;5068129;28;20028;-65
2022/06/05 06:29:08;;;;;;;9.68;8.50;;;;;;;22.59;nan;100671.09;5068718;28;20037;-65
2022/06/05 06:31:34;;;;;;;11.75;7.93;;;;;;;22.96;nan;100722.97;5068366;28;20028;-66
2022/06/05 06:34:01;;;;;;;8.50;7.30;;;;;;;23.01;nan;100707.59;5069610;28;20032;-65
2022/06/05 06:36:27;;;;;;;8.50;7.13;;;;;;;23.07;nan;100710.97;5059968;28;20082;-66
2022/06/05 06:38:53;;;;;;;9.45;7.10;;;;;;;23.11;nan;100722.72;5067355;28;20109;-66
2022/06/05 06:41:20;;;;;;;7.55;6.85;;;;;;;23.11;nan;100723.50;5062651;28;20785;-67
2022/06/05 06:43:49;;;;;;;7.55;6.13;;;;;;;23.11;nan;100711.97;5059244;28;20082;-67
2022/06/05 06:46:16;;;;;;;8.85;6.57;;;;;;;23.13;nan;100707.09;5065952;28;20036;-66
2022/06/05 06:48:42;;;;;;;9.27;6.30;;;;;;;23.16;nan;100713.75;5061558;28;20032;-66
2022/06/05 06:51:08;;;;;;;6.47;5.85;;;;;;;23.25;nan;100720.78;5060397;28;20085;-67
2022/06/05 06:53:36;;;;;;;11.15;4.85;;;;;;;23.33;nan;100714.69;5060717;28;20037;-65
2022/06/05 06:56:13;;;;;;;5.40;4.90;;;;;;;23.54;nan;100715.03;5062856;28;20585;-65
2022/06/05 06:58:42;;;;;;;5.95;4.72;;;;;;;23.66;nan;100719.88;5058665;28;20032;-66
2022/06/05 07:01:08;;;;;;;5.00;4.55;;;;;;;23.73;nan;100720.25;5066693;28;20029;-66
2022/06/05 07:03:34;;;;;;;6.88;4.80;;;;;;;23.75;nan;100715.38;5069269;28;20418;-65
2022/06/05 07:06:06;;;;;;;5.60;4.45;;;;;;;23.83;nan;100715.75;5069306;28;20505;-67
2022/06/05 07:08:32;;;;;;;5.90;4.38;;;;;;;23.80;nan;100702.88;5053762;28;20047;-67
2022/06/05 07:10:58;;;;;;;5.45;4.95;;;;;;;23.88;nan;100708.34;5062664;28;20040;-66
2022/06/05 07:13:24;;;;;;;6.88;4.78;;;;;;;23.95;nan;100699.84;5078960;28;20158;-66
2022/06/05 07:15:49;;;;;;;5.70;4.80;;;;;;;24.14;nan;100715.78;5057819;28;20097;-66
2022/06/05 07:18:18;;;;;;;7.35;5.05;;;;;;;24.19;nan;100705.66;5083859;28;20038;-63
2022/06/05 07:20:45;;;;;;;7.75;4.90;;;;;;;24.22;nan;100706.16;5088560;28;20028;-65
2022/06/05 07:23:17;;;;;;;6.78;5.15;;;;;;;24.20;nan;100691.09;5077853;28;20097;-65
2022/06/05 07:25:48;;;;;;;8.25;5.57;;;;;;;24.19;nan;100688.72;5082020;28;20028;-68
2022/06/05 07:28:23;;;;;;;8.02;5.22;;;;;;;24.25;nan;100684.00;5079860;28;20113;-65
2022/06/05 07:30:52;;;;;;;9.30;5.88;;;;;;;24.40;nan;100689.78;5091830;28;20386;-65
2022/06/05 07:33:20;;;;;;;7.78;5.85;;;;;;;24.45;nan;100693.44;5069497;28;20437;-64
2022/06/05 07:35:45;;;;;;;7.30;5.32;;;;;;;24.46;nan;100684.25;5089412;28;20089;-66
2022/06/05 07:38:12;;;;;;;6.72;5.55;;;;;;;24.45;nan;100678.09;5088704;28;20023;-64
2022/06/05 07:40:42;;;;;;;8.57;5.70;;;;;;;24.53;nan;100674.63;5071114;28;20414;-64
2022/06/05 07:43:10;;;;;;;8.40;5.55;;;;;;;24.58;nan;100677.19;5068511;28;20020;-65
2022/06/05 07:45:43;;;;;;;9.93;5.70;;;;;;;24.63;nan;100668.97;5088378;28;20040;-64
2022/06/05 07:48:08;;;;;;;7.50;5.90;;;;;;;24.84;nan;100685.34;5054352;28;20449;-64
2022/06/05 07:50:34;;;;;;;7.38;5.70;;;;;;;24.96;nan;100682.03;5088277;28;20043;-66
2022/06/05 07:55:44;;;;;;;11.02;5.20;;;;;;;25.01;nan;100681.88;5083865;28;20072;-65
2022/06/05 07:58:09;;;;;;;7.95;5.07;;;;;;;25.02;nan;100683.47;5088686;28;20363;-65
2022/06/05 08:00:34;;;;;;;7.88;4.85;;;;;;;24.77;nan;100630.34;5088245;28;20028;-65
2022/06/05 08:03:03;;;;;;;5.25;4.75;;;;;;;25.09;nan;100666.03;5088236;28;20411;-64
2022/06/05 08:05:28;;;;;;;5.70;4.05;;;;;;;25.30;nan;100677.00;5059697;28;20091;-64
2022/06/05 08:07:54;;;;;;;5.25;4.65;;;;;;;25.35;nan;100683.03;5075582;28;20118;-67
2022/06/05 08:10:19;;;;;;;6.43;4.05;;;;;;;25.45;nan;100674.63;5081616;28;20028;-66
2022/06/05 08:12:45;;;;;;;6.85;4.15;;;;;;;25.53;nan;100681.13;5088653;28;20047;-67
2022/06/05 08:15:13;;;;;;;5.38;3.90;;;;;;;25.49;nan;100669.38;5087527;28;20050;-67
2022/06/05 08:17:39;;;;;;;6.35;3.95;;;;;;;25.50;nan;100662.91;5087018;28;20038;-67
2022/06/05 08:20:07;;;;;;;4.43;3.80;;;;;;;25.56;nan;100672.41;5068540;28;20111;-66
2022/06/05 08:22:33;;;;;;;5.20;4.10;;;;;;;25.62;nan;100681.91;5085124;28;20067;-67
2022/06/05 08:24:59;;;;;;;7.63;3.88;;;;;;;25.63;nan;100671.91;5088165;28;20063;-68
2022/06/05 08:27:26;;;;;;;4.82;3.47;;;;;;;25.63;nan;100656.53;5091337;28;20162;-67
2022/06/05 08:29:55;;;;;;;5.07;3.50;;;;;;;25.80;nan;100665.69;5087045;28;20032;-68
2022/06/05 08:32:22;;;;;;;4.80;3.47;;;;;;;25.82;nan;100666.16;5070778;28;20131;-67
2022/06/05 08:34:47;;;;;;;5.80;3.58;;;;;;;25.72;nan;100658.44;5089299;28;20077;-66
2022/06/05 08:42:59;;;;;;;5.18;3.38;;;;;;;25.99;nan;100663.44;5095344;28;20028;-67
2022/06/05 08:45:34;;;;;;;7.00;3.75;;;;;;;26.01;nan;100657.75;5085183;28;20394;-68
2022/06/05 08:48:06;;;;;;;6.55;3.97;;;;;;;26.05;nan;100654.06;5088473;28;20129;-68
2022/06/05 08:50:45;;;;;;;4.65;3.45;;;;;;;26.15;nan;100671.03;5068260;28;20040;-68
2022/06/05 08:53:22;;;;;;;5.53;4.15;;;;;;;26.21;nan;100669.72;5065245;28;20026;-67
2022/06/05 08:55:51;;;;;;;6.85;4.30;;;;;;;26.23;nan;100659.41;5088599;28;20473;-68
2022/06/05 08:58:46;;;;;;;7.50;4.28;;;;;;;26.29;nan;100650.81;5093236;28;20123;-67
2022/06/05 09:01:26;;;;;;;5.18;4.03;;;;;;;26.37;nan;100654.56;5076474;28;20040;-68
2022/06/05 09:04:20;;;;;;;5.95;3.60;;;;;;;26.37;nan;100656.47;5071011;28;20070;-69
2022/06/05 09:06:54;;;;;;;7.78;4.72;;;;;;;26.24;nan;100656.38;5090811;28;20028;-68
2022/06/05 09:09:26;;;;;;;5.53;4.28;;;;;;;26.19;nan;100642.25;5086298;28;20050;-69
2022/06/05 09:12:02;;;;;;;5.30;3.83;;;;;;;26.24;nan;100660.97;5086759;28;20159;-68
2022/06/05 09:14:49;;;;;;;7.18;3.83;;;;;;;26.31;nan;100664.78;5091457;28;20086;-69
2022/06/05 09:17:19;;;;;;;8.10;3.75;;;;;;;26.44;nan;100662.16;5077622;28;20036;-70
2022/06/05 09:19:47;;;;;;;6.10;3.95;;;;;;;26.59;nan;100652.75;5085072;28;20032;-68
2022/06/05 09:22:21;;;;;;;5.13;4.10;;;;;;;26.59;nan;100639.22;5073650;28;20031;-68
2022/06/05 09:25:01;;;;;;;5.85;3.75;;;;;;;26.77;nan;100651.53;5092311;28;20028;-68
2022/06/05 09:28:04;;;;;;;6.55;3.97;;;;;;;26.78;nan;100649.59;5085745;28;20704;-69
2022/06/05 09:30:51;;;;;;;5.38;3.55;;;;;;;26.68;nan;100638.06;5063919;28;20071;-68
2022/06/05 09:33:25;;;;;;;3.85;3.22;;;;;;;26.76;nan;100655.31;5070299;28;20036;-69
2022/06/05 09:35:56;;;;;;;7.57;3.45;;;;;;;26.75;nan;100642.94;5086826;28;20130;-67
2022/06/05 09:38:31;;;;;;;6.72;3.20;;;;;;;26.87;nan;100653.81;5092771;28;20355;-69
2022/06/05 09:41:03;;;;;;;3.78;2.88;;;;;;;26.91;nan;100635.03;5091863;28;20036;-68
2022/06/05 09:43:54;;;;;;;4.15;3.28;;;;;;;27.01;nan;100641.94;5092366;28;20028;-68
2022/06/05 09:46:38;;;;;;;3.88;3.08;;;;;;;27.01;nan;100648.16;5091297;28;20051;-73
2022/06/05 09:49:13;;;;;;;5.53;3.10;;;;;;;26.99;nan;100649.63;5072237;28;20035;-68
2022/06/05 09:51:41;;;;;;;8.52;3.58;;;;;;;26.86;nan;100646.03;5073221;28;20119;-67
2022/06/05 09:54:26;;;;;;;5.78;3.55;;;;;;;26.81;nan;100624.63;5072289;28;20036;-68
2022/06/05 10:00:00;;;;;;;7.22;3.72;;;;;;;26.97;nan;100649.94;5079991;28;20630;-67
2022/06/05 10:02:27;;;;;;;4.07;3.58;;;;;;;26.92;nan;100648.22;5090830;28;20085;-72
2022/06/05 10:04:54;;;;;;;3.78;3.33;;;;;;;26.86;nan;100651.44;5064096;28;20037;-72
2022/06/05 10:07:29;;;;;;;6.00;3.17;;;;;;;26.95;nan;100657.59;5052379;28;20086;-72
2022/06/05 10:09:55;;;;;;;6.15;3.42;;;;;;;26.89;nan;100635.38;5064978;28;20433;-69
2022/06/05 10:12:36;;;;;;;4.40;3.00;;;;;;;26.93;nan;100646.31;5090512;28;20505;-69
2022/06/05 10:15:18;;;;;;;7.07;3.10;;;;;;;26.86;nan;100622.50;5090158;28;20039;-68
2022/06/05 10:17:53;;;;;;;7.63;3.50;;;;;;;26.94;nan;100629.78;5080946;28;20025;-69
2022/06/05 10:20:21;;;;;;;5.45;3.13;;;;;;;27.06;nan;100636.38;5086934;28;20032;-69
2022/06/05 10:23:01;;;;;;;5.47;3.30;;;;;;;26.98;nan;100623.69;5083648;28;20059;-69
2022/06/05 10:25:40;;;;;;;6.53;3.47;;;;;;;27.16;nan;100633.25;5062662;28;20039;-69
2022/06/05 10:28:25;;;;;;;;;;;;;;;27.27;nan;100633.66;5087032;28;20028;-68
2022/06/05 10:30:57;;;;;;;4.32;2.88;;;;;;;27.30;nan;100631.09;5059536;28;19953;-69
2022/06/05 10:33:50;;;;;;;7.40;3.40;;;;;;;27.30;nan;100624.91;5077554;28;20059;-69
2022/06/05 10:36:23;;;;;;;3.90;3.35;;;;;;;27.32;nan;100622.63;5039290;28;20038;-69
2022/06/05 10:38:55;;;;;;;6.50;4.43;;;;;;;27.22;nan;100604.13;5080464;28;20128;-69
2022/06/05 10:41:30;;;;;;;6.57;4.18;;;;;;;27.50;nan;100628.69;5081773;28;20110;-69
2022/06/05 10:44:17;;;;;;;9.73;4.38;;;;;;;27.57;nan;100628.91;5080902;28;20039;-69
2022/06/05 10:46:52;;;;;;;5.47;3.67;;;;;;;27.59;nan;100626.69;5066997;28;20047;-70
2022/06/05 10:49:26;;;;;;;4.97;3.40;;;;;;;27.49;nan;100610.88;5070888;28;20032;-70
2022/06/05 10:51:58;;;;;;;4.72;3.65;;;;;;;27.56;nan;100621.94;5086424;28;20036;-73
2022/06/05 10:54:42;;;;;;;5.70;3.60;;;;;;;27.54;nan;100616.84;5067821;28;20029;-73
2022/06/05 10:57:25;;;;;;;4.75;3.97;;;;;;;27.43;nan;100609.50;5079526;28;20028;-74
2022/06/05 11:00:02;;;;;;;5.72;3.90;;;;;;;27.39;nan;100611.28;5087861;28;20445;-72
2022/06/05 11:02:45;;;;;;;5.72;3.58;;;;;;;27.40;nan;100605.53;5085057;28;20058;-74
2022/06/05 11:05:21;;;;;;;4.78;3.92;;;;;;;27.58;nan;100619.66;5062145;28;20040;-67
2022/06/05 11:07:54;;;;;;;4.82;4.00;;;;;;;27.72;nan;100616.66;5086225;28;20480;-67
2022/06/05 11:14:01;;;;;;;4.15;3.50;;;;;;;27.70;nan;100613.50;5084053;28;20036;-69
2022/06/05 11:17:01;;;;;;;6.03;3.53;;;;;;;27.83;nan;100620.56;5086396;28;20035;-68
2022/06/05 11:19:39;;;;;;;4.07;3.30;;;;;;;27.78;nan;100609.91;5082377;28;20113;-68
2022/06/05 11:22:11;;;;;;;3.50;3.05;;;;;;;27.77;nan;100616.44;5065037;28;20355;-70
2022/06/05 11:24:47;;;;;;;4.82;3.08;;;;;;;27.81;nan;100620.06;5063960;28;20031;-69
2022/06/05 11:27:18;;;;;;;3.58;2.88;;;;;;;27.82;nan;100610.03;5086376;28;20115;-68
2022/06/05 11:29:53;;;;;;;5.45;3.15;;;;;;;27.82;nan;100607.31;5079810;28;20491;-66
2022/06/05 11:32:32;;;;;;;7.07;3.47;;;;;;;27.73;nan;100602.81;5079290;28;20028;-66
2022/06/05 11:35:10;;;;;;;4.45;3.33;;;;;;;27.79;nan;100611.50;5081250;28;20035;-67
2022/06/05 11:37:56;;;;;;;4.00;3.60;;;;;;;27.80;nan;100610.38;5091542;28;20493;-69
2022/06/05 11:40:44;;;;;;;5.32;3.72;;;;;;;27.61;nan;100601.97;5073526;28;20077;-68
2022/06/05 11:43:21;;;;;;;7.10;3.97;;;;;;;27.66;nan;100602.56;5091204;28;20020;-67
2022/06/05 11:46:11;;;;;;;5.00;3.83;;;;;;;27.64;nan;100594.00;5091640;28;20031;-67
2022/06/05 11:48:39;;;;;;;4.45;3.60;;;;;;;27.73;nan;100591.19;5081772;28;20081;-67
2022/06/05 11:51:30;;;;;;;6.60;3.65;;;;;;;27.63;nan;100581.59;5081663;28;20548;-66
2022/06/05 11:54:07;;;;;;;4.70;3.60;;;;;;;27.61;nan;100588.44;5062698;28;20067;-71
2022/06/05 11:56:55;;;;;;;4.05;3.45;;;;;;;27.60;nan;100581.47;5078620;28;20490;-66
2022/06/05 11:59:23;;;;;;;9.35;3.90;;;;;;;27.62;nan;100580.00;5060780;28;20058;-68
2022/06/05 12:01:57;;;;;;;4.70;3.42;;;;;;;27.58;nan;100584.50;5085775;28;20032;-66
2022/06/05 12:04:53;;;;;;;4.95;3.28;;;;;;;27.59;nan;100564.47;5068572;28;20030;-67
2022/06/05 12:07:19;;;;;;;4.25;3.45;;;;;;;27.76;nan;100575.06;5080109;28;20024;-66
2022/06/05 12:09:50;;;;;;;3.88;3.40;;;;;;;27.88;nan;100573.53;5081804;28;20090;-66
2022/06/05 12:12:28;;;;;;;6.15;3.65;;;;;;;27.71;nan;100572.59;5085302;28;20047;-68
2022/06/05 12:15:22;;;;;;;3.95;3.55;;;;;;;27.76;nan;100572.38;5069078;28;20032;-68
2022/06/05 12:18:22;;;;;;;5.25;3.60;;;;;;;27.82;nan;100572.91;5066841;28;20032;-72